sensor_id;sensor_type;location;lat;lon;timestamp;P1;durP1;ratioP1;P2;durP2;ratioP2
54199;SDS011;57035;47.428;-0.704;2022-08-19T00:01:22;7.50;;;4.80;;
54199;SDS011;57035;47.428;-0.704;2022-08-19T00:03:49;8.20;;;5.15;;
54199;SDS011;57035;47.428;-0.704;2022-08-19T00:06:15;11.18;;;4.97;;
54199;SDS011;57035;47.428;-0.704;2022-08-19T00:08:41;8.05;;;4.97;;
54199;SDS011;57035;47.428;-0.704;2022-08-19T00:11:08;9.40;;;4.70;;
54199;SDS011;57035;47.428;-0.704;2022-08-19T00:13:34;8.95;;;4.72;;
54199;SDS011;57035;47.428;-0.704;2022-08-19T00:16:00;10.32;;;4.72;;
54199;SDS011;57035;47.428;-0.704;2022-08-19T00:18:26;10.07;;;4.55;;
54199;SDS011;57035;47.428;-0.704;2022-08-19T00:20:52;7.68;;;4.45;;
54199;SDS011;57035;47.428;-0.704;2022-08-19T00:23:18;8.38;;;4.13;;
54199;SDS011;57035;47.428;-0.704;2022-08-19T00:25:44;11.98;;;4.93;;
54199;SDS011;57035;47.428;-0.704;2022-08-19T00:28:10;8.35;;;4.70;;
54199;SDS011;57035;47.428;-0.704;2022-08-19T00:30:36;7.93;;;4.72;;
54199;SDS011;57035;47.428;-0.704;2022-08-19T00:33:03;6.35;;;4.30;;
54199;SDS011;57035;47.428;-0.704;2022-08-19T00:35:29;9.05;;;4.53;;
54199;SDS011;57035;47.428;-0.704;2022-08-19T00:37:55;9.20;;;4.75;;
54199;SDS011;57035;47.428;-0.704;2022-08-19T00:40:21;7.80;;;4.20;;
54199;SDS011;57035;47.428;-0.704;2022-08-19T00:42:47;12.82;;;5.05;;
54199;SDS011;57035;47.428;-0.704;2022-08-19T00:45:14;11.70;;;4.70;;
54199;SDS011;57035;47.428;-0.704;2022-08-19T00:47:42;10.48;;;4.85;;
54199;SDS011;57035;47.428;-0.704;2022-08-19T00:50:08;11.57;;;4.90;;
54199;SDS011;57035;47.428;-0.704;2022-08-19T00:52:36;11.18;;;4.93;;
54199;SDS011;57035;47.428;-0.704;2022-08-19T00:55:07;9.10;;;4.65;;
54199;SDS011;57035;47.428;-0.704;2022-08-19T00:57:38;12.02;;;4.55;;
54199;SDS011;57035;47.428;-0.704;2022-08-19T01:00:08;7.05;;;4.28;;
54199;SDS011;57035;47.428;-0.704;2022-08-19T01:02:37;13.05;;;5.35;;
54199;SDS011;57035;47.428;-0.704;2022-08-19T01:05:04;8.55;;;4.97;;
54199;SDS011;57035;47.428;-0.704;2022-08-19T01:07:31;12.10;;;5.00;;
54199;SDS011;57035;47.428;-0.704;2022-08-19T01:09:56;8.13;;;4.18;;
54199;SDS011;57035;47.428;-0.704;2022-08-19T01:12:22;9.57;;;4.85;;
54199;SDS011;57035;47.428;-0.704;2022-08-19T01:14:49;11.35;;;4.68;;
54199;SDS011;57035;47.428;-0.704;2022-08-19T01:17:15;9.65;;;4.25;;
54199;SDS011;57035;47.428;-0.704;2022-08-19T01:19:42;9.05;;;4.47;;
54199;SDS011;57035;47.428;-0.704;2022-08-19T01:22:18;10.02;;;4.68;;
54199;SDS011;57035;47.428;-0.704;2022-08-19T01:24:45;9.73;;;4.30;;
54199;SDS011;57035;47.428;-0.704;2022-08-19T01:27:11;6.70;;;3.92;;
54199;SDS011;57035;47.428;-0.704;2022-08-19T01:29:38;7.43;;;4.30;;
54199;SDS011;57035;47.428;-0.704;2022-08-19T01:32:05;9.20;;;4.63;;
54199;SDS011;57035;47.428;-0.704;2022-08-19T01:34:31;8.68;;;4.50;;
54199;SDS011;57035;47.428;-0.704;2022-08-19T01:36:59;7.68;;;4.10;;
54199;SDS011;57035;47.428;-0.704;2022-08-19T01:39:27;8.57;;;4.20;;
54199;SDS011;57035;47.428;-0.704;2022-08-19T01:41:53;8.27;;;4.10;;
54199;SDS011;57035;47.428;-0.704;2022-08-19T01:44:20;6.40;;;3.88;;
54199;SDS011;57035;47.428;-0.704;2022-08-19T01:46:48;7.80;;;4.50;;
54199;SDS011;57035;47.428;-0.704;2022-08-19T01:49:15;6.35;;;4.10;;
54199;SDS011;57035;47.428;-0.704;2022-08-19T01:51:41;10.95;;;5.28;;
54199;SDS011;57035;47.428;-0.704;2022-08-19T01:54:08;8.27;;;3.75;;
54199;SDS011;57035;47.428;-0.704;2022-08-19T01:56:34;9.35;;;3.70;;
54199;SDS011;57035;47.428;-0.704;2022-08-19T01:59:02;8.35;;;4.63;;
54199;SDS011;57035;47.428;-0.704;2022-08-19T02:01:28;10.05;;;4.07;;
54199;SDS011;57035;47.428;-0.704;2022-08-19T02:03:57;9.68;;;4.93;;
54199;SDS011;57035;47.428;-0.704;2022-08-19T02:06:23;6.90;;;4.68;;
54199;SDS011;57035;47.428;-0.704;2022-08-19T02:08:49;11.00;;;5.40;;
54199;SDS011;57035;47.428;-0.704;2022-08-19T02:11:26;6.25;;;3.90;;
54199;SDS011;57035;47.428;-0.704;2022-08-19T02:13:53;9.00;;;4.40;;
54199;SDS011;57035;47.428;-0.704;2022-08-19T02:16:19;6.88;;;3.53;;
54199;SDS011;57035;47.428;-0.704;2022-08-19T02:18:46;7.75;;;4.25;;
54199;SDS011;57035;47.428;-0.704;2022-08-19T02:21:14;10.65;;;4.13;;
54199;SDS011;57035;47.428;-0.704;2022-08-19T02:23:40;8.88;;;4.20;;
54199;SDS011;57035;47.428;-0.704;2022-08-19T02:26:06;8.68;;;4.40;;
54199;SDS011;57035;47.428;-0.704;2022-08-19T02:28:32;7.47;;;4.20;;
54199;SDS011;57035;47.428;-0.704;2022-08-19T02:30:58;8.95;;;4.30;;
54199;SDS011;57035;47.428;-0.704;2022-08-19T02:33:25;8.63;;;4.28;;
54199;SDS011;57035;47.428;-0.704;2022-08-19T02:35:51;7.47;;;4.28;;
54199;SDS011;57035;47.428;-0.704;2022-08-19T02:38:17;6.90;;;4.68;;
54199;SDS011;57035;47.428;-0.704;2022-08-19T02:41:05;7.70;;;4.47;;
54199;SDS011;57035;47.428;-0.704;2022-08-19T02:43:33;8.15;;;4.90;;
54199;SDS011;57035;47.428;-0.704;2022-08-19T02:46:18;8.60;;;5.25;;
54199;SDS011;57035;47.428;-0.704;2022-08-19T02:48:47;9.32;;;4.72;;
54199;SDS011;57035;47.428;-0.704;2022-08-19T02:51:20;8.15;;;4.95;;
54199;SDS011;57035;47.428;-0.704;2022-08-19T02:53:46;8.80;;;5.40;;
54199;SDS011;57035;47.428;-0.704;2022-08-19T02:56:13;9.52;;;5.38;;
54199;SDS011;57035;47.428;-0.704;2022-08-19T02:58:39;9.85;;;5.32;;
54199;SDS011;57035;47.428;-0.704;2022-08-19T03:01:05;9.63;;;5.63;;
54199;SDS011;57035;47.428;-0.704;2022-08-19T03:03:31;13.48;;;6.00;;
54199;SDS011;57035;47.428;-0.704;2022-08-19T03:06:08;10.68;;;5.38;;
54199;SDS011;57035;47.428;-0.704;2022-08-19T03:08:34;10.23;;;6.22;;
54199;SDS011;57035;47.428;-0.704;2022-08-19T03:11:00;9.48;;;5.50;;
54199;SDS011;57035;47.428;-0.704;2022-08-19T03:13:26;8.20;;;6.68;;
54199;SDS011;57035;47.428;-0.704;2022-08-19T03:15:53;7.43;;;5.55;;
54199;SDS011;57035;47.428;-0.704;2022-08-19T03:18:19;8.95;;;5.43;;
54199;SDS011;57035;47.428;-0.704;2022-08-19T03:20:46;8.80;;;5.20;;
54199;SDS011;57035;47.428;-0.704;2022-08-19T03:23:13;7.78;;;5.20;;
54199;SDS011;57035;47.428;-0.704;2022-08-19T03:25:40;7.10;;;5.03;;
54199;SDS011;57035;47.428;-0.704;2022-08-19T03:28:08;8.40;;;5.40;;
54199;SDS011;57035;47.428;-0.704;2022-08-19T03:30:34;8.45;;;5.63;;
54199;SDS011;57035;47.428;-0.704;2022-08-19T03:33:00;8.27;;;5.20;;
54199;SDS011;57035;47.428;-0.704;2022-08-19T03:35:26;9.48;;;4.93;;
54199;SDS011;57035;47.428;-0.704;2022-08-19T03:37:52;7.45;;;5.20;;
54199;SDS011;57035;47.428;-0.704;2022-08-19T03:40:18;8.02;;;5.38;;
54199;SDS011;57035;47.428;-0.704;2022-08-19T03:42:45;6.80;;;4.88;;
54199;SDS011;57035;47.428;-0.704;2022-08-19T03:45:11;7.40;;;4.72;;
54199;SDS011;57035;47.428;-0.704;2022-08-19T03:47:37;6.90;;;4.38;;
54199;SDS011;57035;47.428;-0.704;2022-08-19T03:50:04;7.82;;;5.15;;
54199;SDS011;57035;47.428;-0.704;2022-08-19T03:52:30;7.75;;;5.13;;
54199;SDS011;57035;47.428;-0.704;2022-08-19T03:54:56;5.93;;;4.35;;
54199;SDS011;57035;47.428;-0.704;2022-08-19T03:57:22;6.72;;;4.50;;
54199;SDS011;57035;47.428;-0.704;2022-08-19T03:59:48;6.97;;;4.60;;
54199;SDS011;57035;47.428;-0.704;2022-08-19T04:02:14;6.35;;;4.30;;
54199;SDS011;57035;47.428;-0.704;2022-08-19T04:04:41;6.60;;;4.82;;
54199;SDS011;57035;47.428;-0.704;2022-08-19T04:07:08;6.45;;;4.82;;
54199;SDS011;57035;47.428;-0.704;2022-08-19T04:09:34;7.28;;;4.53;;
54199;SDS011;57035;47.428;-0.704;2022-08-19T04:12:03;6.60;;;4.40;;
54199;SDS011;57035;47.428;-0.704;2022-08-19T04:14:31;7.88;;;4.30;;
54199;SDS011;57035;47.428;-0.704;2022-08-19T04:16:58;7.90;;;4.95;;
54199;SDS011;57035;47.428;-0.704;2022-08-19T04:19:25;7.60;;;4.32;;
54199;SDS011;57035;47.428;-0.704;2022-08-19T04:21:52;6.72;;;4.85;;
54199;SDS011;57035;47.428;-0.704;2022-08-19T04:24:20;6.80;;;4.30;;
54199;SDS011;57035;47.428;-0.704;2022-08-19T04:26:46;7.13;;;5.13;;
54199;SDS011;57035;47.428;-0.704;2022-08-19T04:29:14;6.03;;;4.18;;
54199;SDS011;57035;47.428;-0.704;2022-08-19T04:31:41;6.88;;;3.97;;
54199;SDS011;57035;47.428;-0.704;2022-08-19T04:34:09;5.53;;;3.83;;
54199;SDS011;57035;47.428;-0.704;2022-08-19T04:36:36;8.05;;;4.60;;
54199;SDS011;57035;47.428;-0.704;2022-08-19T04:39:04;6.05;;;3.83;;
54199;SDS011;57035;47.428;-0.704;2022-08-19T04:41:31;7.72;;;4.45;;
54199;SDS011;57035;47.428;-0.704;2022-08-19T04:44:15;7.60;;;4.18;;
54199;SDS011;57035;47.428;-0.704;2022-08-19T04:46:45;7.40;;;3.80;;
54199;SDS011;57035;47.428;-0.704;2022-08-19T04:49:13;6.05;;;4.28;;
54199;SDS011;57035;47.428;-0.704;2022-08-19T04:51:41;7.80;;;4.03;;
54199;SDS011;57035;47.428;-0.704;2022-08-19T04:54:07;6.47;;;4.28;;
54199;SDS011;57035;47.428;-0.704;2022-08-19T04:56:33;6.93;;;4.10;;
54199;SDS011;57035;47.428;-0.704;2022-08-19T04:58:59;8.00;;;4.68;;
54199;SDS011;57035;47.428;-0.704;2022-08-19T05:01:29;8.80;;;4.40;;
54199;SDS011;57035;47.428;-0.704;2022-08-19T05:03:57;7.32;;;3.78;;
54199;SDS011;57035;47.428;-0.704;2022-08-19T05:06:23;6.30;;;4.00;;
54199;SDS011;57035;47.428;-0.704;2022-08-19T05:08:50;7.60;;;4.13;;
54199;SDS011;57035;47.428;-0.704;2022-08-19T05:11:24;7.80;;;4.13;;
54199;SDS011;57035;47.428;-0.704;2022-08-19T05:13:50;8.57;;;4.15;;
54199;SDS011;57035;47.428;-0.704;2022-08-19T05:16:17;5.97;;;3.78;;
54199;SDS011;57035;47.428;-0.704;2022-08-19T05:18:44;6.22;;;3.80;;
54199;SDS011;57035;47.428;-0.704;2022-08-19T05:21:29;7.13;;;3.90;;
54199;SDS011;57035;47.428;-0.704;2022-08-19T05:24:14;5.22;;;3.33;;
54199;SDS011;57035;47.428;-0.704;2022-08-19T05:26:41;8.57;;;3.50;;
54199;SDS011;57035;47.428;-0.704;2022-08-19T05:29:08;7.78;;;3.83;;
54199;SDS011;57035;47.428;-0.704;2022-08-19T05:31:35;5.88;;;3.85;;
54199;SDS011;57035;47.428;-0.704;2022-08-19T05:34:02;5.25;;;3.47;;
54199;SDS011;57035;47.428;-0.704;2022-08-19T05:36:32;8.35;;;3.70;;
54199;SDS011;57035;47.428;-0.704;2022-08-19T05:38:59;5.78;;;3.40;;
54199;SDS011;57035;47.428;-0.704;2022-08-19T05:41:25;5.50;;;3.53;;
54199;SDS011;57035;47.428;-0.704;2022-08-19T05:43:54;5.95;;;2.97;;
54199;SDS011;57035;47.428;-0.704;2022-08-19T05:46:21;5.13;;;3.00;;
54199;SDS011;57035;47.428;-0.704;2022-08-19T05:48:48;5.07;;;3.40;;
54199;SDS011;57035;47.428;-0.704;2022-08-19T05:51:14;4.60;;;2.85;;
54199;SDS011;57035;47.428;-0.704;2022-08-19T05:53:41;5.93;;;3.58;;
54199;SDS011;57035;47.428;-0.704;2022-08-19T05:56:08;7.60;;;3.38;;
54199;SDS011;57035;47.428;-0.704;2022-08-19T05:58:36;6.78;;;3.92;;
54199;SDS011;57035;47.428;-0.704;2022-08-19T06:01:03;4.30;;;3.03;;
54199;SDS011;57035;47.428;-0.704;2022-08-19T06:03:33;4.05;;;2.75;;
54199;SDS011;57035;47.428;-0.704;2022-08-19T06:06:01;4.28;;;2.53;;
54199;SDS011;57035;47.428;-0.704;2022-08-19T06:08:27;6.93;;;3.20;;
54199;SDS011;57035;47.428;-0.704;2022-08-19T06:10:54;5.05;;;3.35;;
54199;SDS011;57035;47.428;-0.704;2022-08-19T06:13:20;6.97;;;3.90;;
54199;SDS011;57035;47.428;-0.704;2022-08-19T06:15:47;10.95;;;3.40;;
54199;SDS011;57035;47.428;-0.704;2022-08-19T06:18:13;6.60;;;4.40;;
54199;SDS011;57035;47.428;-0.704;2022-08-19T06:20:40;7.20;;;5.07;;
54199;SDS011;57035;47.428;-0.704;2022-08-19T06:23:07;8.57;;;4.97;;
54199;SDS011;57035;47.428;-0.704;2022-08-19T06:25:33;9.52;;;6.85;;
54199;SDS011;57035;47.428;-0.704;2022-08-19T06:28:00;12.20;;;7.80;;
54199;SDS011;57035;47.428;-0.704;2022-08-19T06:30:26;9.73;;;7.28;;
54199;SDS011;57035;47.428;-0.704;2022-08-19T06:32:52;9.63;;;7.18;;
54199;SDS011;57035;47.428;-0.704;2022-08-19T06:35:19;10.75;;;8.35;;
54199;SDS011;57035;47.428;-0.704;2022-08-19T06:37:45;10.98;;;8.52;;
54199;SDS011;57035;47.428;-0.704;2022-08-19T06:40:12;11.70;;;9.82;;
54199;SDS011;57035;47.428;-0.704;2022-08-19T06:42:38;13.73;;;9.88;;
54199;SDS011;57035;47.428;-0.704;2022-08-19T06:45:04;12.85;;;9.60;;
54199;SDS011;57035;47.428;-0.704;2022-08-19T06:47:30;14.40;;;10.98;;
54199;SDS011;57035;47.428;-0.704;2022-08-19T06:49:58;17.58;;;10.77;;
54199;SDS011;57035;47.428;-0.704;2022-08-19T06:52:34;12.82;;;9.88;;
54199;SDS011;57035;47.428;-0.704;2022-08-19T06:55:02;12.13;;;10.40;;
54199;SDS011;57035;47.428;-0.704;2022-08-19T06:57:28;11.75;;;10.30;;
54199;SDS011;57035;47.428;-0.704;2022-08-19T06:59:56;12.18;;;10.05;;
54199;SDS011;57035;47.428;-0.704;2022-08-19T07:02:22;11.77;;;10.57;;
54199;SDS011;57035;47.428;-0.704;2022-08-19T07:04:51;12.32;;;9.85;;
54199;SDS011;57035;47.428;-0.704;2022-08-19T07:07:17;13.65;;;9.75;;
54199;SDS011;57035;47.428;-0.704;2022-08-19T07:09:44;10.07;;;8.93;;
54199;SDS011;57035;47.428;-0.704;2022-08-19T07:12:11;12.75;;;8.82;;
54199;SDS011;57035;47.428;-0.704;2022-08-19T07:14:38;10.48;;;8.85;;
54199;SDS011;57035;47.428;-0.704;2022-08-19T07:17:05;9.15;;;8.13;;
54199;SDS011;57035;47.428;-0.704;2022-08-19T07:19:31;8.25;;;7.35;;
54199;SDS011;57035;47.428;-0.704;2022-08-19T07:21:58;7.75;;;6.78;;
54199;SDS011;57035;47.428;-0.704;2022-08-19T07:24:26;8.95;;;7.40;;
54199;SDS011;57035;47.428;-0.704;2022-08-19T07:26:53;11.23;;;7.20;;
54199;SDS011;57035;47.428;-0.704;2022-08-19T07:29:20;8.32;;;5.47;;
54199;SDS011;57035;47.428;-0.704;2022-08-19T07:31:48;7.05;;;5.63;;
54199;SDS011;57035;47.428;-0.704;2022-08-19T07:34:14;8.63;;;5.45;;
54199;SDS011;57035;47.428;-0.704;2022-08-19T07:36:40;6.32;;;4.95;;
54199;SDS011;57035;47.428;-0.704;2022-08-19T07:39:08;5.57;;;4.40;;
54199;SDS011;57035;47.428;-0.704;2022-08-19T07:41:35;5.35;;;4.53;;
54199;SDS011;57035;47.428;-0.704;2022-08-19T07:44:02;5.50;;;4.70;;
54199;SDS011;57035;47.428;-0.704;2022-08-19T07:46:31;6.25;;;4.13;;
54199;SDS011;57035;47.428;-0.704;2022-08-19T07:48:58;5.40;;;4.32;;
54199;SDS011;57035;47.428;-0.704;2022-08-19T07:51:25;5.97;;;4.50;;
54199;SDS011;57035;47.428;-0.704;2022-08-19T07:53:51;5.60;;;4.43;;
54199;SDS011;57035;47.428;-0.704;2022-08-19T07:56:18;4.97;;;4.20;;
54199;SDS011;57035;47.428;-0.704;2022-08-19T07:58:45;5.50;;;4.60;;
54199;SDS011;57035;47.428;-0.704;2022-08-19T08:01:21;6.25;;;3.90;;
54199;SDS011;57035;47.428;-0.704;2022-08-19T08:03:49;5.18;;;4.25;;
54199;SDS011;57035;47.428;-0.704;2022-08-19T08:06:34;6.32;;;4.07;;
54199;SDS011;57035;47.428;-0.704;2022-08-19T08:09:21;5.63;;;3.95;;
54199;SDS011;57035;47.428;-0.704;2022-08-19T08:11:50;5.65;;;3.72;;
54199;SDS011;57035;47.428;-0.704;2022-08-19T08:14:18;4.50;;;3.63;;
54199;SDS011;57035;47.428;-0.704;2022-08-19T08:16:45;6.15;;;3.83;;
54199;SDS011;57035;47.428;-0.704;2022-08-19T08:19:12;4.63;;;3.75;;
54199;SDS011;57035;47.428;-0.704;2022-08-19T08:21:41;4.63;;;3.45;;
54199;SDS011;57035;47.428;-0.704;2022-08-19T08:24:08;6.47;;;3.67;;
54199;SDS011;57035;47.428;-0.704;2022-08-19T08:26:34;4.75;;;3.35;;
54199;SDS011;57035;47.428;-0.704;2022-08-19T08:29:00;5.60;;;3.70;;
54199;SDS011;57035;47.428;-0.704;2022-08-19T08:31:26;4.03;;;2.90;;
54199;SDS011;57035;47.428;-0.704;2022-08-19T08:33:53;5.03;;;2.95;;
54199;SDS011;57035;47.428;-0.704;2022-08-19T08:36:19;4.15;;;3.17;;
54199;SDS011;57035;47.428;-0.704;2022-08-19T08:38:45;5.63;;;3.55;;
54199;SDS011;57035;47.428;-0.704;2022-08-19T08:41:32;5.10;;;3.20;;
54199;SDS011;57035;47.428;-0.704;2022-08-19T08:44:00;9.07;;;3.58;;
54199;SDS011;57035;47.428;-0.704;2022-08-19T08:46:32;7.03;;;3.10;;
54199;SDS011;57035;47.428;-0.704;2022-08-19T08:51:33;4.35;;;2.55;;
54199;SDS011;57035;47.428;-0.704;2022-08-19T08:53:59;4.63;;;3.15;;
54199;SDS011;57035;47.428;-0.704;2022-08-19T08:56:26;5.32;;;3.42;;
54199;SDS011;57035;47.428;-0.704;2022-08-19T08:59:06;5.32;;;3.15;;
54199;SDS011;57035;47.428;-0.704;2022-08-19T09:01:34;4.30;;;3.08;;
54199;SDS011;57035;47.428;-0.704;2022-08-19T09:04:05;4.85;;;2.92;;
54199;SDS011;57035;47.428;-0.704;2022-08-19T09:06:36;3.70;;;3.10;;
54199;SDS011;57035;47.428;-0.704;2022-08-19T09:09:05;4.70;;;3.00;;
54199;SDS011;57035;47.428;-0.704;2022-08-19T09:14:17;3.70;;;2.90;;
54199;SDS011;57035;47.428;-0.704;2022-08-19T09:19:14;4.70;;;2.70;;
54199;SDS011;57035;47.428;-0.704;2022-08-19T09:21:42;4.55;;;3.25;;
54199;SDS011;57035;47.428;-0.704;2022-08-19T09:24:08;6.47;;;3.65;;
54199;SDS011;57035;47.428;-0.704;2022-08-19T09:26:34;5.70;;;3.63;;
54199;SDS011;57035;47.428;-0.704;2022-08-19T09:29:00;5.93;;;4.50;;
54199;SDS011;57035;47.428;-0.704;2022-08-19T09:31:30;6.82;;;5.00;;
54199;SDS011;57035;47.428;-0.704;2022-08-19T09:33:57;6.57;;;4.72;;
54199;SDS011;57035;47.428;-0.704;2022-08-19T09:36:24;6.43;;;4.65;;
54199;SDS011;57035;47.428;-0.704;2022-08-19T09:38:51;6.93;;;4.70;;
54199;SDS011;57035;47.428;-0.704;2022-08-19T09:41:18;5.43;;;4.38;;
54199;SDS011;57035;47.428;-0.704;2022-08-19T09:43:46;7.22;;;5.43;;
54199;SDS011;57035;47.428;-0.704;2022-08-19T09:46:13;6.05;;;4.90;;
54199;SDS011;57035;47.428;-0.704;2022-08-19T09:48:41;7.85;;;5.43;;
54199;SDS011;57035;47.428;-0.704;2022-08-19T09:51:10;6.18;;;5.07;;
54199;SDS011;57035;47.428;-0.704;2022-08-19T09:53:40;7.63;;;5.18;;
54199;SDS011;57035;47.428;-0.704;2022-08-19T09:56:06;5.75;;;4.60;;
54199;SDS011;57035;47.428;-0.704;2022-08-19T09:58:33;5.93;;;4.55;;
54199;SDS011;57035;47.428;-0.704;2022-08-19T10:01:00;6.93;;;5.22;;
54199;SDS011;57035;47.428;-0.704;2022-08-19T10:03:27;8.60;;;5.82;;
54199;SDS011;57035;47.428;-0.704;2022-08-19T10:05:54;8.00;;;5.05;;
54199;SDS011;57035;47.428;-0.704;2022-08-19T10:08:21;8.13;;;5.38;;
54199;SDS011;57035;47.428;-0.704;2022-08-19T10:10:48;8.90;;;5.43;;
54199;SDS011;57035;47.428;-0.704;2022-08-19T10:13:16;8.00;;;5.65;;
54199;SDS011;57035;47.428;-0.704;2022-08-19T10:15:42;8.38;;;5.05;;
54199;SDS011;57035;47.428;-0.704;2022-08-19T10:18:09;9.30;;;5.53;;
54199;SDS011;57035;47.428;-0.704;2022-08-19T10:20:35;6.72;;;5.18;;
54199;SDS011;57035;47.428;-0.704;2022-08-19T10:23:02;8.90;;;6.10;;
54199;SDS011;57035;47.428;-0.704;2022-08-19T10:25:28;8.15;;;6.05;;
54199;SDS011;57035;47.428;-0.704;2022-08-19T10:27:54;8.45;;;5.95;;
54199;SDS011;57035;47.428;-0.704;2022-08-19T10:30:20;8.07;;;5.78;;
54199;SDS011;57035;47.428;-0.704;2022-08-19T10:32:46;7.63;;;6.10;;
54199;SDS011;57035;47.428;-0.704;2022-08-19T10:35:13;9.98;;;7.13;;
54199;SDS011;57035;47.428;-0.704;2022-08-19T10:37:39;8.57;;;6.90;;
54199;SDS011;57035;47.428;-0.704;2022-08-19T10:40:06;10.43;;;6.68;;
54199;SDS011;57035;47.428;-0.704;2022-08-19T10:42:33;7.97;;;5.75;;
54199;SDS011;57035;47.428;-0.704;2022-08-19T10:45:00;9.73;;;5.20;;
54199;SDS011;57035;47.428;-0.704;2022-08-19T10:47:26;5.93;;;4.50;;
54199;SDS011;57035;47.428;-0.704;2022-08-19T10:49:53;5.00;;;3.90;;
54199;SDS011;57035;47.428;-0.704;2022-08-19T10:52:43;3.97;;;3.08;;
54199;SDS011;57035;47.428;-0.704;2022-08-19T10:55:09;4.65;;;2.90;;
54199;SDS011;57035;47.428;-0.704;2022-08-19T10:57:54;4.35;;;3.13;;
54199;SDS011;57035;47.428;-0.704;2022-08-19T11:00:21;4.45;;;3.03;;
54199;SDS011;57035;47.428;-0.704;2022-08-19T11:02:48;3.50;;;2.55;;
54199;SDS011;57035;47.428;-0.704;2022-08-19T11:05:14;3.92;;;2.63;;
54199;SDS011;57035;47.428;-0.704;2022-08-19T11:07:40;4.25;;;2.65;;
54199;SDS011;57035;47.428;-0.704;2022-08-19T11:10:07;3.05;;;1.80;;
54199;SDS011;57035;47.428;-0.704;2022-08-19T11:12:38;2.67;;;1.80;;
54199;SDS011;57035;47.428;-0.704;2022-08-19T11:15:05;3.33;;;1.58;;
54199;SDS011;57035;47.428;-0.704;2022-08-19T11:17:31;2.42;;;1.42;;
54199;SDS011;57035;47.428;-0.704;2022-08-19T11:19:57;2.10;;;1.48;;
54199;SDS011;57035;47.428;-0.704;2022-08-19T11:22:28;2.58;;;1.50;;
54199;SDS011;57035;47.428;-0.704;2022-08-19T11:24:54;2.83;;;1.42;;
54199;SDS011;57035;47.428;-0.704;2022-08-19T11:27:21;2.90;;;1.60;;
54199;SDS011;57035;47.428;-0.704;2022-08-19T11:29:47;2.05;;;1.10;;
54199;SDS011;57035;47.428;-0.704;2022-08-19T11:32:13;2.58;;;1.50;;
54199;SDS011;57035;47.428;-0.704;2022-08-19T11:34:40;3.05;;;1.83;;
54199;SDS011;57035;47.428;-0.704;2022-08-19T11:37:06;3.03;;;1.20;;
54199;SDS011;57035;47.428;-0.704;2022-08-19T11:39:34;1.52;;;1.20;;
54199;SDS011;57035;47.428;-0.704;2022-08-19T11:42:02;1.40;;;1.00;;
54199;SDS011;57035;47.428;-0.704;2022-08-19T11:44:48;4.05;;;1.65;;
54199;SDS011;57035;47.428;-0.704;2022-08-19T11:47:14;1.98;;;1.40;;
54199;SDS011;57035;47.428;-0.704;2022-08-19T11:49:40;2.40;;;1.40;;
54199;SDS011;57035;47.428;-0.704;2022-08-19T11:52:07;3.03;;;1.77;;
54199;SDS011;57035;47.428;-0.704;2022-08-19T11:54:33;3.40;;;1.50;;
54199;SDS011;57035;47.428;-0.704;2022-08-19T11:56:59;1.92;;;1.27;;
54199;SDS011;57035;47.428;-0.704;2022-08-19T11:59:26;1.52;;;1.13;;
54199;SDS011;57035;47.428;-0.704;2022-08-19T12:01:52;1.98;;;1.10;;
54199;SDS011;57035;47.428;-0.704;2022-08-19T12:04:18;2.97;;;1.40;;
54199;SDS011;57035;47.428;-0.704;2022-08-19T12:06:44;2.60;;;1.60;;
54199;SDS011;57035;47.428;-0.704;2022-08-19T12:09:10;1.77;;;1.25;;
54199;SDS011;57035;47.428;-0.704;2022-08-19T12:11:37;2.72;;;1.67;;
54199;SDS011;57035;47.428;-0.704;2022-08-19T12:14:03;1.92;;;1.30;;
54199;SDS011;57035;47.428;-0.704;2022-08-19T12:16:30;1.40;;;1.13;;
54199;SDS011;57035;47.428;-0.704;2022-08-19T12:18:57;2.50;;;1.10;;
54199;SDS011;57035;47.428;-0.704;2022-08-19T12:21:28;2.95;;;1.27;;
54199;SDS011;57035;47.428;-0.704;2022-08-19T12:23:55;1.73;;;1.30;;
54199;SDS011;57035;47.428;-0.704;2022-08-19T12:26:21;1.73;;;1.10;;
54199;SDS011;57035;47.428;-0.704;2022-08-19T12:28:47;1.42;;;1.20;;
54199;SDS011;57035;47.428;-0.704;2022-08-19T12:31:14;2.30;;;1.35;;
54199;SDS011;57035;47.428;-0.704;2022-08-19T12:33:40;1.50;;;1.10;;
54199;SDS011;57035;47.428;-0.704;2022-08-19T12:36:08;2.65;;;1.05;;
54199;SDS011;57035;47.428;-0.704;2022-08-19T12:38:35;2.03;;;1.10;;
54199;SDS011;57035;47.428;-0.704;2022-08-19T12:41:01;2.30;;;1.02;;
54199;SDS011;57035;47.428;-0.704;2022-08-19T12:43:32;1.75;;;1.20;;
54199;SDS011;57035;47.428;-0.704;2022-08-19T12:45:58;1.45;;;1.05;;
54199;SDS011;57035;47.428;-0.704;2022-08-19T12:48:24;1.17;;;0.90;;
54199;SDS011;57035;47.428;-0.704;2022-08-19T12:50:50;1.58;;;1.05;;
54199;SDS011;57035;47.428;-0.704;2022-08-19T12:53:16;1.77;;;1.05;;
54199;SDS011;57035;47.428;-0.704;2022-08-19T12:55:42;1.30;;;1.00;;
54199;SDS011;57035;47.428;-0.704;2022-08-19T12:58:09;2.22;;;1.05;;
54199;SDS011;57035;47.428;-0.704;2022-08-19T13:00:35;2.22;;;1.00;;
54199;SDS011;57035;47.428;-0.704;2022-08-19T13:03:01;1.48;;;1.10;;
54199;SDS011;57035;47.428;-0.704;2022-08-19T13:05:28;5.00;;;1.30;;
54199;SDS011;57035;47.428;-0.704;2022-08-19T13:07:55;1.83;;;1.00;;
54199;SDS011;57035;47.428;-0.704;2022-08-19T13:10:23;3.50;;;1.25;;
54199;SDS011;57035;47.428;-0.704;2022-08-19T13:12:50;0.98;;;0.90;;
54199;SDS011;57035;47.428;-0.704;2022-08-19T13:15:17;2.65;;;1.10;;
54199;SDS011;57035;47.428;-0.704;2022-08-19T13:17:45;1.67;;;1.00;;
54199;SDS011;57035;47.428;-0.704;2022-08-19T13:20:14;1.92;;;1.08;;
54199;SDS011;57035;47.428;-0.704;2022-08-19T13:22:40;2.30;;;1.00;;
54199;SDS011;57035;47.428;-0.704;2022-08-19T13:25:07;1.38;;;1.00;;
54199;SDS011;57035;47.428;-0.704;2022-08-19T13:27:34;0.98;;;0.90;;
54199;SDS011;57035;47.428;-0.704;2022-08-19T13:30:00;2.53;;;1.15;;
54199;SDS011;57035;47.428;-0.704;2022-08-19T13:32:45;2.13;;;1.05;;
54199;SDS011;57035;47.428;-0.704;2022-08-19T13:35:30;1.80;;;0.80;;
54199;SDS011;57035;47.428;-0.704;2022-08-19T13:37:56;2.40;;;1.02;;
54199;SDS011;57035;47.428;-0.704;2022-08-19T13:40:22;2.33;;;1.00;;
54199;SDS011;57035;47.428;-0.704;2022-08-19T13:42:51;1.80;;;1.00;;
54199;SDS011;57035;47.428;-0.704;2022-08-19T13:45:19;1.00;;;0.80;;
54199;SDS011;57035;47.428;-0.704;2022-08-19T13:47:46;2.10;;;0.90;;
54199;SDS011;57035;47.428;-0.704;2022-08-19T13:50:13;2.90;;;0.85;;
54199;SDS011;57035;47.428;-0.704;2022-08-19T13:52:39;1.52;;;0.80;;
54199;SDS011;57035;47.428;-0.704;2022-08-19T13:55:06;2.42;;;0.90;;
54199;SDS011;57035;47.428;-0.704;2022-08-19T13:57:32;2.28;;;0.90;;
54199;SDS011;57035;47.428;-0.704;2022-08-19T13:59:58;2.15;;;1.17;;
54199;SDS011;57035;47.428;-0.704;2022-08-19T14:02:24;2.40;;;0.77;;
54199;SDS011;57035;47.428;-0.704;2022-08-19T14:04:51;1.40;;;1.10;;
54199;SDS011;57035;47.428;-0.704;2022-08-19T14:07:17;1.23;;;0.90;;
54199;SDS011;57035;47.428;-0.704;2022-08-19T14:09:43;2.05;;;0.93;;
54199;SDS011;57035;47.428;-0.704;2022-08-19T14:12:09;1.17;;;0.77;;
54199;SDS011;57035;47.428;-0.704;2022-08-19T14:14:38;1.50;;;1.00;;
54199;SDS011;57035;47.428;-0.704;2022-08-19T14:17:08;1.60;;;0.98;;
54199;SDS011;57035;47.428;-0.704;2022-08-19T14:19:34;2.05;;;1.40;;
54199;SDS011;57035;47.428;-0.704;2022-08-19T14:22:01;1.45;;;1.02;;
54199;SDS011;57035;47.428;-0.704;2022-08-19T14:24:27;4.18;;;1.40;;
54199;SDS011;57035;47.428;-0.704;2022-08-19T14:26:53;2.03;;;0.90;;
54199;SDS011;57035;47.428;-0.704;2022-08-19T14:29:19;2.50;;;1.10;;
54199;SDS011;57035;47.428;-0.704;2022-08-19T14:31:45;1.50;;;0.93;;
54199;SDS011;57035;47.428;-0.704;2022-08-19T14:34:11;2.78;;;1.10;;
54199;SDS011;57035;47.428;-0.704;2022-08-19T14:36:37;3.72;;;1.33;;
54199;SDS011;57035;47.428;-0.704;2022-08-19T14:39:03;3.33;;;1.30;;
54199;SDS011;57035;47.428;-0.704;2022-08-19T14:41:29;3.50;;;1.20;;
54199;SDS011;57035;47.428;-0.704;2022-08-19T14:43:56;2.05;;;1.10;;